sensor_id;sensor_type;location;lat;lon;timestamp;pressure;altitude;pressure_sealevel;temperature;humidity
68169;BME280;54981;50.206;15.978;2024-03-29T00:00:18;97642.41;;;5.29;100.00
68169;BME280;54981;50.206;15.978;2024-03-29T00:15:19;97662.19;;;5.05;100.00
68169;BME280;54981;50.206;15.978;2024-03-29T00:30:19;97685.78;;;5.08;100.00
68169;BME280;54981;50.206;15.978;2024-03-29T00:45:19;97696.34;;;4.90;100.00
68169;BME280;54981;50.206;15.978;2024-03-29T01:00:20;97717.31;;;4.76;100.00
68169;BME280;54981;50.206;15.978;2024-03-29T01:15:20;97726.13;;;4.23;100.00
68169;BME280;54981;50.206;15.978;2024-03-29T01:30:21;97715.91;;;4.34;100.00
68169;BME280;54981;50.206;15.978;2024-03-29T01:45:22;97730.94;;;3.96;100.00
68169;BME280;54981;50.206;15.978;2024-03-29T02:00:22;97739.16;;;3.71;100.00
68169;BME280;54981;50.206;15.978;2024-03-29T02:15:23;97719.16;;;3.67;100.00
68169;BME280;54981;50.206;15.978;2024-03-29T02:30:23;97716.78;;;2.83;100.00
68169;BME280;54981;50.206;15.978;2024-03-29T02:45:24;97749.31;;;2.60;100.00
68169;BME280;54981;50.206;15.978;2024-03-29T03:00:24;97751.88;;;2.82;100.00
68169;BME280;54981;50.206;15.978;2024-03-29T03:15:24;97754.72;;;2.77;100.00
68169;BME280;54981;50.206;15.978;2024-03-29T03:30:25;97788.16;;;2.09;100.00
68169;BME280;54981;50.206;15.978;2024-03-29T03:45:25;97811.22;;;2.01;100.00
68169;BME280;54981;50.206;15.978;2024-03-29T04:00:26;97795.47;;;2.23;100.00
68169;BME280;54981;50.206;15.978;2024-03-29T04:15:26;97788.16;;;2.09;100.00
68169;BME280;54981;50.206;15.978;2024-03-29T04:30:27;97762.25;;;2.22;100.00
68169;BME280;54981;50.206;15.978;2024-03-29T04:45:27;97790.81;;;1.86;100.00
68169;BME280;54981;50.206;15.978;2024-03-29T05:00:27;97777.03;;;2.03;100.00
68169;BME280;54981;50.206;15.978;2024-03-29T05:15:28;97777.88;;;2.25;100.00
68169;BME280;54981;50.206;15.978;2024-03-29T05:30:29;97793.38;;;2.74;100.00
68169;BME280;54981;50.206;15.978;2024-03-29T05:45:30;97794.34;;;3.14;100.00
68169;BME280;54981;50.206;15.978;2024-03-29T06:00:31;97815.16;;;3.97;100.00
68169;BME280;54981;50.206;15.978;2024-03-29T06:30:33;97829.81;;;5.96;100.00
68169;BME280;54981;50.206;15.978;2024-03-29T06:45:33;97849.50;;;6.70;100.00
68169;BME280;54981;50.206;15.978;2024-03-29T07:00:33;97836.72;;;7.53;100.00
68169;BME280;54981;50.206;15.978;2024-03-29T07:15:34;97836.09;;;8.62;100.00
68169;BME280;54981;50.206;15.978;2024-03-29T07:30:36;97857.28;;;9.69;100.00
68169;BME280;54981;50.206;15.978;2024-03-29T07:45:38;97826.44;;;10.79;100.00
68169;BME280;54981;50.206;15.978;2024-03-29T08:15:40;97831.28;;;12.36;100.00
68169;BME280;54981;50.206;15.978;2024-03-29T08:30:41;97802.47;;;13.38;100.00
68169;BME280;54981;50.206;15.978;2024-03-29T08:45:42;97807.78;;;13.80;91.65
68169;BME280;54981;50.206;15.978;2024-03-29T09:00:42;97782.03;;;14.10;71.84
68169;BME280;54981;50.206;15.978;2024-03-29T09:15:42;97772.75;;;14.74;58.98
68169;BME280;54981;50.206;15.978;2024-03-29T09:30:43;97765.56;;;15.42;54.52
68169;BME280;54981;50.206;15.978;2024-03-29T09:45:44;97743.59;;;16.59;50.44
68169;BME280;54981;50.206;15.978;2024-03-29T10:00:44;97714.38;;;16.92;46.70
68169;BME280;54981;50.206;15.978;2024-03-29T10:15:45;97693.22;;;17.41;43.37
68169;BME280;54981;50.206;15.978;2024-03-29T10:30:49;97673.19;;;17.09;43.17
68169;BME280;54981;50.206;15.978;2024-03-29T10:45:50;97640.53;;;17.56;42.57
68169;BME280;54981;50.206;15.978;2024-03-29T11:00:57;97635.75;;;18.19;42.33
68169;BME280;54981;50.206;15.978;2024-03-29T11:15:59;97609.03;;;18.74;43.34
68169;BME280;54981;50.206;15.978;2024-03-29T11:46:04;97570.38;;;19.31;44.91
68169;BME280;54981;50.206;15.978;2024-03-29T12:01:05;97551.44;;;19.40;47.68
68169;BME280;54981;50.206;15.978;2024-03-29T12:16:06;97548.84;;;18.25;52.26
68169;BME280;54981;50.206;15.978;2024-03-29T12:31:09;97565.22;;;18.48;53.37
68169;BME280;54981;50.206;15.978;2024-03-29T12:46:10;97573.81;;;19.56;50.53
68169;BME280;54981;50.206;15.978;2024-03-29T13:01:10;97593.66;;;19.24;51.60
68169;BME280;54981;50.206;15.978;2024-03-29T13:16:11;97608.38;;;19.61;55.49
68169;BME280;54981;50.206;15.978;2024-03-29T13:31:11;97594.03;;;19.61;54.42
68169;BME280;54981;50.206;15.978;2024-03-29T13:46:12;97569.06;;;19.11;56.93
68169;BME280;54981;50.206;15.978;2024-03-29T14:01:13;97569.41;;;18.26;73.12
68169;BME280;54981;50.206;15.978;2024-03-29T14:16:13;97554.25;;;18.17;79.28
68169;BME280;54981;50.206;15.978;2024-03-29T14:31:13;97547.81;;;19.00;71.05
68169;BME280;54981;50.206;15.978;2024-03-29T14:46:14;97540.97;;;18.64;75.59
68169;BME280;54981;50.206;15.978;2024-03-29T15:01:14;97531.84;;;18.08;86.23
68169;BME280;54981;50.206;15.978;2024-03-29T15:16:15;97519.84;;;17.43;92.97
68169;BME280;54981;50.206;15.978;2024-03-29T15:31:19;97506.97;;;17.13;93.22
68169;BME280;54981;50.206;15.978;2024-03-29T15:46:21;97513.47;;;17.02;92.43
68169;BME280;54981;50.206;15.978;2024-03-29T16:01:22;97524.41;;;17.00;92.32
68169;BME280;54981;50.206;15.978;2024-03-29T16:16:22;97520.88;;;16.56;100.00
68169;BME280;54981;50.206;15.978;2024-03-29T16:31:22;97517.56;;;16.18;100.00
68169;BME280;54981;50.206;15.978;2024-03-29T16:46:23;97515.94;;;15.71;100.00
68169;BME280;54981;50.206;15.978;2024-03-29T17:01:23;97503.16;;;15.38;100.00
68169;BME280;54981;50.206;15.978;2024-03-29T17:16:23;97504.44;;;15.06;100.00
68169;BME280;54981;50.206;15.978;2024-03-29T17:31:24;97500.88;;;14.78;100.00
68169;BME280;54981;50.206;15.978;2024-03-29T17:46:24;97501.22;;;14.26;100.00
68169;BME280;54981;50.206;15.978;2024-03-29T18:01:25;97536.72;;;13.70;100.00
68169;BME280;54981;50.206;15.978;2024-03-29T18:16:25;97558.31;;;13.28;100.00
68169;BME280;54981;50.206;15.978;2024-03-29T18:31:26;97575.50;;;12.83;100.00
68169;BME280;54981;50.206;15.978;2024-03-29T18:46:26;97582.88;;;12.49;100.00
68169;BME280;54981;50.206;15.978;2024-03-29T19:01:27;97557.56;;;12.95;100.00
68169;BME280;54981;50.206;15.978;2024-03-29T19:16:27;97557.97;;;13.21;100.00
68169;BME280;54981;50.206;15.978;2024-03-29T19:31:30;97545.09;;;13.36;100.00
68169;BME280;54981;50.206;15.978;2024-03-29T19:46:30;97543.63;;;13.62;100.00
68169;BME280;54981;50.206;15.978;2024-03-29T20:01:30;97548.84;;;13.74;100.00
68169;BME280;54981;50.206;15.978;2024-03-29T20:16:31;97548.56;;;13.77;100.00
68169;BME280;54981;50.206;15.978;2024-03-29T20:31:31;97545.16;;;13.65;100.00
68169;BME280;54981;50.206;15.978;2024-03-29T20:46:31;97537.03;;;13.67;100.00
68169;BME280;54981;50.206;15.978;2024-03-29T21:01:34;97552.75;;;13.60;100.00
68169;BME280;54981;50.206;15.978;2024-03-29T21:16:53;97562.06;;;13.75;100.00
68169;BME280;54981;50.206;15.978;2024-03-29T21:31:55;97560.06;;;13.58;100.00
68169;BME280;54981;50.206;15.978;2024-03-29T21:46:56;97560.38;;;13.64;100.00
68169;BME280;54981;50.206;15.978;2024-03-29T22:01:56;97562.59;;;13.50;100.00
68169;BME280;54981;50.206;15.978;2024-03-29T22:16:56;97563.03;;;13.24;100.00
68169;BME280;54981;50.206;15.978;2024-03-29T22:31:57;97564.03;;;13.23;100.00
68169;BME280;54981;50.206;15.978;2024-03-29T22:46:57;97566.22;;;13.18;100.00
68169;BME280;54981;50.206;15.978;2024-03-29T23:01:57;97569.97;;;13.06;100.00
68169;BME280;54981;50.206;15.978;2024-03-29T23:16:58;97576.66;;;12.90;100.00
68169;BME280;54981;50.206;15.978;2024-03-29T23:31:58;97565.66;;;12.84;100.00
68169;BME280;54981;50.206;15.978;2024-03-29T23:46:58;97579.34;;;12.69;100.00
